Time;durP1;ratioP1;P1;durP2;ratioP2;P2;SDS_P1;SDS_P2;PMS_P1;PMS_P2;Temp;Humidity;BMP_temperature;BMP_pressure;BME280_temperature;BME280_humidity;BME280_pressure;Samples;Min_cycle;Max_cycle;Signal;HPM_P1;HPM_P2
2023/07/07 00:01:01;;;;;;;11.27;5.13;;;;;;;35.69;20.33;100350.41;4910759;29;20063;-74
2023/07/07 00:03:30;;;;;;;10.57;4.80;;;;;;;35.66;20.50;100354.19;4907142;29;20499;-73
2023/07/07 00:05:58;;;;;;;8.80;4.80;;;;;;;35.68;20.30;100340.63;4912539;28;20120;-73
2023/07/07 00:08:27;;;;;;;10.00;4.13;;;;;;;35.72;20.18;100347.47;4908794;29;20055;-72
2023/07/07 00:10:58;;;;;;;5.57;4.28;;;;;;;35.75;20.57;100348.06;4906327;29;20489;-76
2023/07/07 00:13:27;;;;;;;4.63;3.85;;;;;;;35.77;20.15;100339.88;4909191;29;20048;-77
2023/07/07 00:16:01;;;;;;;6.00;4.22;;;;;;;35.70;19.99;100338.66;4912602;29;20055;-74
2023/07/07 00:18:29;;;;;;;7.78;4.50;;;;;;;35.68;20.00;100337.94;4910344;29;20048;-76
2023/07/07 00:21:06;;;;;;;6.47;4.00;;;;;;;35.68;20.00;100335.25;4916675;29;20604;-75
2023/07/07 00:23:37;;;;;;;6.32;4.47;;;;;;;35.68;19.70;100338.78;4920529;29;20052;-77
2023/07/07 00:26:09;;;;;;;8.43;4.78;;;;;;;35.55;19.91;100336.22;4914618;29;20457;-74
2023/07/07 00:28:38;;;;;;;7.45;3.88;;;;;;;35.52;20.15;100332.94;4910168;29;20047;-71
2023/07/07 00:31:09;;;;;;;6.38;3.97;;;;;;;35.50;20.05;100333.03;4912063;29;20048;-71
2023/07/07 00:33:38;;;;;;;4.68;3.72;;;;;;;35.45;20.15;100329.88;4911805;29;20079;-73
2023/07/07 00:36:07;;;;;;;6.93;3.90;;;;;;;35.38;20.52;100326.00;4914726;29;20055;-75
2023/07/07 00:38:35;;;;;;;6.75;3.25;;;;;;;35.23;20.43;100315.50;4910685;29;20055;-78
2023/07/07 00:41:05;;;;;;;4.65;3.45;;;;;;;35.22;20.71;100319.16;4915310;29;20285;-75
2023/07/07 00:43:36;;;;;;;7.53;3.60;;;;;;;35.18;21.02;100325.75;4913566;29;20059;-74
2023/07/07 00:46:06;;;;;;;6.97;3.28;;;;;;;35.15;20.97;100322.47;4909480;29;20496;-74
2023/07/07 00:48:37;;;;;;;5.97;3.38;;;;;;;35.12;21.45;100326.28;4911910;29;20056;-74
2023/07/07 00:51:11;;;;;;;9.10;3.35;;;;;;;35.06;21.44;100323.19;4912844;29;20044;-76
2023/07/07 00:53:41;;;;;;;7.40;3.20;;;;;;;35.01;21.87;100315.50;4910815;29;20060;-74
2023/07/07 00:56:14;;;;;;;9.48;3.20;;;;;;;34.93;21.86;100324.16;4912165;29;20060;-76
2023/07/07 00:58:45;;;;;;;5.15;3.22;;;;;;;34.86;20.84;100316.72;4909416;29;20141;-74
2023/07/07 01:01:17;;;;;;;4.65;3.30;;;;;;;34.75;20.46;100320.25;4911605;29;20052;-77
2023/07/07 01:03:49;;;;;;;9.00;6.05;;;;;;;34.67;20.43;100310.09;4910455;29;20051;-74
2023/07/07 01:06:31;;;;;;;10.80;6.30;;;;;;;34.59;19.50;100310.69;4914112;28;20060;-79
2023/07/07 01:09:03;;;;;;;7.63;5.57;;;;;;;34.41;19.53;100317.50;4917887;29;20060;-73
2023/07/07 01:11:31;;;;;;;7.38;3.90;;;;;;;34.13;19.69;100313.38;4914935;29;20120;-75
2023/07/07 01:14:04;;;;;;;7.55;3.47;;;;;;;33.95;20.43;100308.41;4935868;29;20039;-74
2023/07/07 01:16:44;;;;;;;6.05;3.72;;;;;;;33.83;21.03;100316.53;4923034;29;20055;-73
2023/07/07 01:19:45;;;;;;;4.68;3.42;;;;;;;33.57;21.40;100320.19;4919476;29;20113;-73
2023/07/07 01:22:29;;;;;;;10.98;4.15;;;;;;;33.45;23.18;100313.00;4925954;29;20051;-74
2023/07/07 01:25:17;;;;;;;5.65;2.90;;;;;;;33.40;23.36;100312.50;4931066;28;20047;-76
2023/07/07 01:28:00;;;;;;;7.75;3.33;;;;;;;33.35;23.58;100310.16;4931026;29;20056;-77
2023/07/07 01:30:42;;;;;;;5.05;2.78;;;;;;;33.33;24.15;100311.22;4912631;29;20087;-75
2023/07/07 01:33:12;;;;;;;;;;;;;;;33.34;24.11;100310.25;4914515;29;20540;-76
2023/07/07 01:35:40;;;;;;;7.15;2.63;;;;;;;33.33;24.72;100305.84;4918686;29;19923;-77
2023/07/07 01:38:31;;;;;;;9.15;2.70;;;;;;;33.29;25.44;100307.91;4916613;29;20051;-75
2023/07/07 01:41:08;;;;;;;4.20;2.30;;;;;;;33.21;25.71;100309.44;4917216;29;20043;-75
2023/07/07 01:43:42;;;;;;;11.02;2.55;;;;;;;32.87;26.10;100314.50;4918180;29;20112;-74
2023/07/07 01:46:21;;;;;;;5.82;2.08;;;;;;;32.68;26.10;100314.94;4915508;29;20094;-79
2023/07/07 01:48:57;;;;;;;9.77;2.33;;;;;;;32.61;27.03;100317.19;4918021;29;20055;-74
2023/07/07 01:51:29;;;;;;;4.85;1.80;;;;;;;32.57;27.02;100313.00;4916905;29;20067;-75
2023/07/07 01:54:00;;;;;;;4.00;1.88;;;;;;;32.49;27.27;100316.19;4915772;29;20118;-79
2023/07/07 01:56:32;;;;;;;3.50;1.90;;;;;;;32.36;26.98;100312.63;4914340;29;20517;-79
2023/07/07 01:59:02;;;;;;;4.20;1.90;;;;;;;32.27;27.88;100318.63;4915087;29;20048;-75
2023/07/07 02:01:33;;;;;;;5.80;2.00;;;;;;;32.02;28.36;100322.09;4914933;29;20091;-79
2023/07/07 02:04:01;;;;;;;8.10;1.92;;;;;;;31.86;28.45;100311.53;4928219;29;20048;-77
2023/07/07 02:06:30;;;;;;;4.00;1.80;;;;;;;31.80;28.60;100333.38;4922044;28;20059;-85
2023/07/07 02:09:00;;;;;;;3.70;1.73;;;;;;;31.67;28.96;100335.97;4920145;29;20064;-83
2023/07/07 02:11:28;;;;;;;6.85;1.80;;;;;;;31.58;29.27;100340.09;4914737;29;20080;-74
2023/07/07 02:13:57;;;;;;;10.13;1.80;;;;;;;31.46;30.34;100339.09;4921695;29;20388;-71
2023/07/07 02:16:25;;;;;;;4.63;1.80;;;;;;;31.28;29.89;100340.22;4915203;29;20675;-77
2023/07/07 02:18:55;;;;;;;5.38;1.70;;;;;;;30.97;30.22;100346.63;4911659;29;20503;-78
2023/07/07 02:21:24;;;;;;;6.32;1.67;;;;;;;30.64;31.12;100348.59;4917929;29;20107;-77
2023/07/07 02:23:53;;;;;;;6.78;1.80;;;;;;;30.33;31.79;100346.03;4908795;29;20052;-75
2023/07/07 02:26:22;;;;;;;6.18;1.92;;;;;;;30.15;31.94;100348.84;4912607;29;20538;-74
2023/07/07 02:28:50;;;;;;;7.18;1.80;;;;;;;29.93;32.68;100348.38;4917047;29;20197;-76
2023/07/07 02:31:24;;;;;;;4.82;1.70;;;;;;;29.67;32.71;100342.69;4912913;29;20057;-81
2023/07/07 02:33:54;;;;;;;5.43;1.73;;;;;;;29.56;32.70;100345.09;4913398;29;20095;-78
2023/07/07 02:36:25;;;;;;;6.53;1.60;;;;;;;29.44;33.05;100352.81;4914132;29;20075;-77
2023/07/07 02:38:54;;;;;;;7.07;1.70;;;;;;;29.31;33.35;100356.25;4911713;29;20079;-80
2023/07/07 02:41:23;;;;;;;7.03;1.73;;;;;;;29.25;33.21;100357.44;4913212;29;20047;-75
2023/07/07 02:43:53;;;;;;;5.80;1.70;;;;;;;29.22;33.54;100370.94;4912573;29;20498;-75
2023/07/07 02:46:22;;;;;;;5.72;1.60;;;;;;;29.01;34.23;100367.59;4918688;29;20055;-74
2023/07/07 02:48:50;;;;;;;10.88;1.55;;;;;;;28.77;34.32;100362.66;4913491;29;20524;-79
2023/07/07 02:51:19;;;;;;;7.28;1.50;;;;;;;28.40;35.36;100368.94;4910133;29;20905;-77
2023/07/07 02:53:49;;;;;;;8.50;1.60;;;;;;;28.20;35.71;100373.50;4922199;29;20460;-76
2023/07/07 02:56:18;;;;;;;4.00;1.63;;;;;;;28.11;35.71;100373.09;4919686;29;20056;-77
2023/07/07 02:58:46;;;;;;;7.65;1.83;;;;;;;27.90;36.29;100367.91;4916868;29;20419;-82
2023/07/07 03:01:20;;;;;;;6.18;1.90;;;;;;;27.75;36.79;100372.13;4912332;29;20052;-75
2023/07/07 03:03:50;;;;;;;6.13;1.48;;;;;;;27.63;36.92;100371.84;4909913;29;20063;-75
2023/07/07 03:06:21;;;;;;;8.73;2.05;;;;;;;27.44;37.23;100370.06;4913175;28;20052;-77
2023/07/07 03:08:52;;;;;;;11.23;1.80;;;;;;;27.31;37.46;100376.88;4911112;29;20089;-84
2023/07/07 03:11:22;;;;;;;7.93;2.30;;;;;;;27.19;37.42;100377.38;4914223;29;20121;-77
2023/07/07 03:13:51;;;;;;;8.13;2.33;;;;;;;26.99;38.28;100381.81;4909323;29;20083;-77
2023/07/07 03:16:22;;;;;;;6.72;1.83;;;;;;;26.86;38.08;100384.16;4911171;29;20048;-74
2023/07/07 03:18:53;;;;;;;7.18;1.98;;;;;;;26.76;38.00;100382.84;4913831;29;20052;-76
2023/07/07 03:21:23;;;;;;;4.25;1.60;;;;;;;26.69;38.97;100394.66;4917346;29;20538;-77
2023/07/07 03:23:55;;;;;;;8.55;1.70;;;;;;;26.63;38.43;100397.56;4917821;29;20044;-76
2023/07/07 03:26:28;;;;;;;5.38;1.40;;;;;;;26.48;38.81;100397.25;4919427;29;20209;-77
2023/07/07 03:28:57;;;;;;;2.72;1.48;;;;;;;26.36;38.89;100395.09;4916621;29;20214;-78
2023/07/07 03:31:26;;;;;;;5.18;2.03;;;;;;;26.29;39.58;100401.59;4915893;29;20044;-78
2023/07/07 03:33:57;;;;;;;4.90;1.60;;;;;;;26.24;39.14;100401.78;4910819;29;20453;-79
2023/07/07 03:36:34;;;;;;;5.60;1.50;;;;;;;26.21;39.52;100396.63;4912414;29;20505;-83
2023/07/07 03:39:05;;;;;;;4.68;1.50;;;;;;;26.12;40.21;100400.50;4915938;29;20052;-81
2023/07/07 03:41:35;;;;;;;4.30;1.80;;;;;;;26.06;40.00;100398.09;4919211;29;20079;-82
2023/07/07 03:44:03;;;;;;;8.18;1.75;;;;;;;26.02;40.16;100400.94;4922573;29;20040;-82
2023/07/07 03:46:32;;;;;;;7.00;2.05;;;;;;;25.97;39.87;100401.13;4932304;29;20052;-83
2023/07/07 03:49:01;;;;;;;4.43;1.75;;;;;;;25.97;40.05;100409.06;4921725;29;20044;-82
2023/07/07 03:51:34;;;;;;;9.15;1.73;;;;;;;25.91;40.67;100407.53;4920079;29;20048;-81
2023/07/07 03:54:08;;;;;;;4.88;1.80;;;;;;;25.81;40.82;100406.13;4919616;29;20063;-83
2023/07/07 03:56:36;;;;;;;5.93;1.90;;;;;;;25.67;41.53;100404.00;4922956;29;20056;-80
2023/07/07 03:59:05;;;;;;;7.50;2.10;;;;;;;25.55;41.62;100417.75;4912472;29;20541;-80
2023/07/07 04:01:33;;;;;;;5.60;1.45;;;;;;;25.44;41.48;100407.53;4915811;29;20052;-82
2023/07/07 04:04:02;;;;;;;5.35;1.73;;;;;;;25.36;41.65;100424.63;4920728;29;20044;-82
2023/07/07 04:06:33;;;;;;;5.25;1.95;;;;;;;25.24;42.00;100421.56;4914467;29;20097;-77
2023/07/07 04:09:03;;;;;;;5.88;1.73;;;;;;;25.10;42.14;100426.44;4917362;29;20306;-79
2023/07/07 04:11:33;;;;;;;7.90;1.92;;;;;;;25.01;42.53;100434.69;4920367;29;20040;-80
2023/07/07 04:14:01;;;;;;;8.50;2.05;;;;;;;24.89;42.84;100446.59;4916658;29;20148;-80
2023/07/07 04:16:30;;;;;;;5.88;1.73;;;;;;;24.76;42.52;100435.56;4929192;28;20063;-78
2023/07/07 04:19:06;;;;;;;8.68;1.80;;;;;;;24.64;42.85;100449.19;4928604;29;20044;-80
2023/07/07 04:21:35;;;;;;;6.53;1.92;;;;;;;24.51;43.31;100445.22;4933780;29;20070;-79
2023/07/07 04:24:06;;;;;;;8.77;2.22;;;;;;;24.42;43.23;100449.03;4917857;29;20074;-81
2023/07/07 04:26:38;;;;;;;9.02;2.13;;;;;;;24.34;43.79;100454.56;4916670;29;20059;-81
2023/07/07 04:29:07;;;;;;;10.15;2.38;;;;;;;24.26;43.81;100461.88;4922742;29;20072;-81
2023/07/07 04:31:36;;;;;;;6.75;1.80;;;;;;;24.17;44.27;100462.19;4919705;29;20113;-81
2023/07/07 04:34:05;;;;;;;5.70;1.58;;;;;;;24.04;44.64;100469.59;4912055;29;20856;-81
2023/07/07 04:36:33;;;;;;;5.85;2.35;;;;;;;23.97;44.28;100471.56;4919117;29;20164;-74
2023/07/07 04:39:04;;;;;;;10.95;1.92;;;;;;;23.84;44.88;100472.84;4920582;29;20040;-77
2023/07/07 04:41:34;;;;;;;6.85;2.17;;;;;;;23.68;45.88;100474.19;4918577;29;20076;-78
2023/07/07 04:44:02;;;;;;;6.65;2.15;;;;;;;23.51;45.53;100485.25;4914254;29;20056;-79
2023/07/07 04:46:32;;;;;;;8.98;2.03;;;;;;;23.46;45.45;100485.38;4911456;29;20055;-81
2023/07/07 04:49:06;;;;;;;6.93;2.03;;;;;;;23.42;46.21;100486.34;4914635;29;20508;-77
2023/07/07 04:51:36;;;;;;;6.22;2.03;;;;;;;23.26;46.17;100487.69;4911245;29;20062;-74
2023/07/07 04:54:07;;;;;;;6.88;2.10;;;;;;;22.96;46.81;100488.44;4909971;29;20052;-77
2023/07/07 04:56:36;;;;;;;6.40;2.28;;;;;;;22.84;47.20;100493.13;4909115;29;20048;-77
2023/07/07 04:59:08;;;;;;;10.98;2.47;;;;;;;22.75;47.69;100491.63;4911185;29;20447;-82
2023/07/07 05:01:40;;;;;;;6.80;1.83;;;;;;;22.66;48.23;100499.75;4909044;29;20048;-78
2023/07/07 05:04:10;;;;;;;10.63;2.03;;;;;;;22.64;48.19;100498.94;4908574;29;20504;-74
2023/07/07 05:06:40;;;;;;;7.45;2.22;;;;;;;22.55;48.07;100500.88;4911514;28;20060;-76
2023/07/07 05:09:12;;;;;;;7.68;2.17;;;;;;;22.44;48.13;100512.59;4914477;29;20048;-78
2023/07/07 05:11:41;;;;;;;5.82;1.83;;;;;;;22.28;48.41;100514.72;4914585;29;20058;-80
2023/07/07 05:14:10;;;;;;;10.18;2.38;;;;;;;22.11;49.74;100513.28;4926034;29;20048;-83
2023/07/07 05:16:39;;;;;;;6.55;2.10;;;;;;;21.86;50.08;100514.72;4918104;29;20066;-81
2023/07/07 05:19:09;;;;;;;6.65;2.25;;;;;;;21.69;51.09;100525.56;4919177;29;20056;-82
2023/07/07 05:21:37;;;;;;;6.68;1.58;;;;;;;21.60;50.73;100512.59;4920369;29;20166;-83
2023/07/07 05:24:06;;;;;;;4.63;1.85;;;;;;;21.61;51.34;100528.38;4920975;29;20135;-80
2023/07/07 05:26:37;;;;;;;4.47;1.10;;;;;;;21.52;50.74;100525.91;4918904;29;20048;-78
2023/07/07 05:29:06;;;;;;;6.68;1.80;;;;;;;21.38;51.87;100528.78;4928680;29;20040;-81
2023/07/07 05:31:36;;;;;;;6.25;2.00;;;;;;;21.18;52.08;100530.91;4917655;29;20049;-81
2023/07/07 05:34:05;;;;;;;8.05;1.73;;;;;;;21.08;52.04;100541.59;4915294;29;20067;-82
2023/07/07 05:36:34;;;;;;;7.28;1.83;;;;;;;20.97;52.81;100542.69;4913036;29;20461;-82
2023/07/07 05:39:04;;;;;;;2.85;1.33;;;;;;;20.80;53.14;100532.41;4924707;29;20043;-80
2023/07/07 05:41:32;;;;;;;7.47;2.08;;;;;;;20.68;53.41;100542.25;4921732;29;20059;-82
2023/07/07 05:44:03;;;;;;;6.85;1.67;;;;;;;20.52;54.41;100543.31;4915513;29;20375;-79
2023/07/07 05:46:31;;;;;;;10.00;1.75;;;;;;;20.30;54.64;100543.66;4916480;29;20111;-80
2023/07/07 05:49:00;;;;;;;10.93;1.85;;;;;;;20.20;54.69;100549.94;4914954;29;20470;-78
2023/07/07 05:51:29;;;;;;;4.78;1.42;;;;;;;20.17;54.56;100554.34;4914210;29;20048;-82
2023/07/07 05:53:58;;;;;;;7.47;1.70;;;;;;;20.12;54.96;100550.91;4912874;29;20044;-79
2023/07/07 05:56:27;;;;;;;3.85;1.55;;;;;;;20.01;55.38;100554.53;4913310;29;20052;-78
2023/07/07 05:58:57;;;;;;;6.13;1.75;;;;;;;19.90;55.74;100568.69;4915615;29;20040;-81
2023/07/07 06:01:27;;;;;;;6.15;1.33;;;;;;;19.81;56.11;100573.19;4916619;29;20087;-81
2023/07/07 06:03:56;;;;;;;7.93;1.85;;;;;;;19.76;56.05;100571.47;4926392;29;20553;-81
2023/07/07 06:06:24;;;;;;;4.70;1.35;;;;;;;19.69;56.52;100578.53;4922480;29;20119;-83
2023/07/07 06:08:53;;;;;;;8.73;1.85;;;;;;;19.62;56.85;100582.09;4921693;28;20111;-78
2023/07/07 06:11:22;;;;;;;8.02;1.50;;;;;;;19.46;57.12;100574.38;4908139;29;20052;-81
2023/07/07 06:13:51;;;;;;;7.68;1.63;;;;;;;19.36;58.50;100585.84;4911072;29;20300;-81
2023/07/07 06:16:19;;;;;;;4.47;1.50;;;;;;;19.21;58.16;100593.84;4914631;29;20372;-81
2023/07/07 06:18:53;;;;;;;4.90;1.80;;;;;;;19.10;58.31;100582.56;4911551;29;20512;-81
2023/07/07 06:21:22;;;;;;;6.53;1.77;;;;;;;19.00;59.13;100581.78;4927225;29;20059;-82
2023/07/07 06:23:50;;;;;;;6.70;1.75;;;;;;;18.96;59.36;100590.56;4923622;29;20040;-82
2023/07/07 06:26:19;;;;;;;7.25;1.70;;;;;;;18.87;59.03;100591.47;4922893;29;20028;-82
2023/07/07 06:28:47;;;;;;;4.18;1.77;;;;;;;18.82;59.86;100590.66;4919731;29;20100;-81
2023/07/07 06:31:16;;;;;;;5.90;1.60;;;;;;;18.80;60.31;100595.03;4922571;29;20139;-81
2023/07/07 06:33:45;;;;;;;6.57;1.50;;;;;;;18.72;60.34;100600.31;4919159;29;20379;-80
2023/07/07 06:36:15;;;;;;;5.65;1.58;;;;;;;18.70;60.22;100593.34;4928268;29;20059;-83
2023/07/07 06:38:44;;;;;;;3.90;1.48;;;;;;;18.73;59.67;100598.53;4926109;29;20111;-82
2023/07/07 06:41:16;;;;;;;3.92;1.73;;;;;;;18.74;60.23;100597.69;4928712;29;20047;-80
2023/07/07 06:43:44;;;;;;;7.18;1.70;;;;;;;18.72;60.07;100602.06;4925892;29;20048;-80
2023/07/07 06:46:15;;;;;;;8.25;2.05;;;;;;;18.64;60.85;100604.72;4921985;29;20051;-84
2023/07/07 06:48:44;;;;;;;7.00;1.60;;;;;;;18.56;60.59;100604.75;4924399;29;20052;-83
2023/07/07 06:51:16;;;;;;;3.20;1.20;;;;;;;18.37;61.96;100605.72;4919875;29;20044;-81
2023/07/07 06:53:47;;;;;;;3.20;1.25;;;;;;;18.26;62.60;100605.81;4918663;29;20059;-82
2023/07/07 06:56:16;;;;;;;4.80;1.40;;;;;;;18.19;62.70;100612.81;4916837;29;20051;-82
2023/07/07 06:58:45;;;;;;;4.50;0.90;;;;;;;18.10;63.61;100614.59;4909686;29;20490;-82
2023/07/07 07:01:14;;;;;;;4.18;1.88;;;;;;;18.03;64.01;100610.22;4923594;29;20048;-84
2023/07/07 07:03:44;;;;;;;8.52;1.42;;;;;;;18.00;63.53;100611.13;4917274;29;20110;-83
2023/07/07 07:06:14;;;;;;;5.55;2.05;;;;;;;18.00;63.61;100611.13;4920498;29;20052;-85
2023/07/07 07:08:43;;;;;;;4.63;1.60;;;;;;;17.97;63.30;100611.13;4931549;28;20091;-85
2023/07/07 07:11:14;;;;;;;4.38;1.63;;;;;;;17.95;63.41;100608.50;4922656;29;20573;-84
2023/07/07 07:13:43;;;;;;;7.15;1.92;;;;;;;17.94;64.89;100611.16;4923304;29;20048;-84
2023/07/07 07:16:12;;;;;;;7.35;1.55;;;;;;;17.86;64.49;100610.28;4932784;29;20113;-83
2023/07/07 07:18:41;;;;;;;8.82;1.77;;;;;;;17.83;65.09;100615.56;4936776;29;20075;-83
2023/07/07 07:21:15;;;;;;;7.18;2.15;;;;;;;17.77;64.51;100613.78;4916315;29;20557;-83
2023/07/07 07:23:44;;;;;;;4.60;1.30;;;;;;;17.71;65.14;100614.66;4921463;29;20130;-82
2023/07/07 07:26:13;;;;;;;3.83;1.20;;;;;;;17.71;64.61;100626.88;4931048;29;20051;-83
2023/07/07 07:28:41;;;;;;;5.68;1.55;;;;;;;17.66;65.13;100619.06;4926559;29;20130;-83
2023/07/07 07:31:10;;;;;;;6.35;1.67;;;;;;;17.57;65.03;100617.31;4926764;29;20075;-83
2023/07/07 07:33:39;;;;;;;5.13;1.42;;;;;;;17.57;65.30;100614.69;4922580;29;20049;-81
2023/07/07 07:36:09;;;;;;;4.05;1.40;;;;;;;17.58;65.48;100615.56;4923756;29;20083;-84
2023/07/07 07:38:39;;;;;;;7.03;1.52;;;;;;;17.61;65.58;100612.94;4935132;29;20040;-83
2023/07/07 07:41:08;;;;;;;4.60;1.50;;;;;;;17.64;64.66;100614.66;4923148;29;20100;-84
2023/07/07 07:43:37;;;;;;;7.88;1.67;;;;;;;17.65;64.79;100617.28;4921086;29;20059;-82
2023/07/07 07:46:08;;;;;;;7.95;1.70;;;;;;;17.66;64.57;100621.66;4929469;29;20051;-84
2023/07/07 07:48:36;;;;;;;9.15;1.35;;;;;;;17.61;65.30;100615.53;4917801;29;20048;-83
2023/07/07 07:51:05;;;;;;;6.55;1.80;;;;;;;17.59;65.14;100622.53;4921350;29;20123;-83
2023/07/07 07:53:34;;;;;;;8.85;1.73;;;;;;;17.61;64.77;100612.94;4921644;29;20052;-83
2023/07/07 07:56:05;;;;;;;5.68;1.10;;;;;;;17.62;64.30;100619.91;4919934;29;20056;-84
2023/07/07 07:58:41;;;;;;;6.13;1.10;;;;;;;17.62;64.77;100619.06;4922498;29;20044;-84
2023/07/07 08:01:11;;;;;;;4.65;1.45;;;;;;;17.59;64.99;100625.13;4927779;29;20999;-83
2023/07/07 08:03:39;;;;;;;4.75;1.15;;;;;;;17.58;64.91;100623.41;4929613;29;20055;-84
2023/07/07 08:06:08;;;;;;;6.22;2.20;;;;;;;17.57;64.58;100622.53;4922979;29;20045;-84
2023/07/07 08:08:51;;;;;;;10.43;1.73;;;;;;;17.57;64.51;100629.53;4929686;28;20103;-83
2023/07/07 08:11:42;;;;;;;6.68;1.77;;;;;;;17.52;65.10;100631.25;4910413;29;20066;-84
2023/07/07 08:14:12;;;;;;;8.55;1.40;;;;;;;17.44;65.31;100635.63;4915157;29;20052;-83
2023/07/07 08:16:41;;;;;;;7.60;1.60;;;;;;;17.41;64.75;100635.63;4915107;29;20058;-84
2023/07/07 08:19:10;;;;;;;8.38;2.13;;;;;;;17.34;65.65;100635.66;4911210;29;20056;-85
2023/07/07 08:21:39;;;;;;;6.57;1.95;;;;;;;17.34;66.42;100632.13;4915172;29;20147;-84
2023/07/07 08:24:08;;;;;;;7.25;1.30;;;;;;;17.33;66.21;100635.63;4914828;29;20611;-84
2023/07/07 08:26:38;;;;;;;5.72;1.70;;;;;;;17.31;65.83;100633.00;4913183;29;20043;-83
2023/07/07 08:29:07;;;;;;;2.90;1.35;;;;;;;17.29;65.92;100632.13;4911639;29;20048;-84
2023/07/07 08:31:36;;;;;;;6.43;1.33;;;;;;;17.20;66.49;100636.50;4911820;29;20051;-84
2023/07/07 08:34:07;;;;;;;5.55;1.23;;;;;;;17.11;67.07;100637.34;4913285;29;20048;-82
2023/07/07 08:36:36;;;;;;;9.30;2.23;;;;;;;17.06;67.68;100633.88;4912732;29;20418;-83
2023/07/07 08:39:12;;;;;;;2.92;1.33;;;;;;;17.03;67.26;100639.97;4910800;29;20048;-82
2023/07/07 08:41:50;;;;;;;5.53;1.50;;;;;;;17.03;67.44;100645.19;4913658;29;20099;-84
2023/07/07 08:44:23;;;;;;;5.95;1.75;;;;;;;16.95;68.45;100646.94;4917149;29;20056;-83
2023/07/07 08:47:09;;;;;;;5.40;1.85;;;;;;;16.77;69.61;100655.59;4916997;29;20509;-82
2023/07/07 08:49:45;;;;;;;5.28;1.42;;;;;;;16.63;70.52;100660.78;4920458;29;20049;-83
2023/07/07 08:52:34;;;;;;;5.05;1.80;;;;;;;16.54;70.87;100664.22;4917070;29;20066;-82
2023/07/07 08:55:14;;;;;;;5.30;1.50;;;;;;;16.48;71.63;100671.16;4924014;29;20383;-83
2023/07/07 08:57:52;;;;;;;6.72;1.60;;;;;;;16.46;71.56;100673.75;4922997;29;20060;-83
2023/07/07 09:00:30;;;;;;;3.78;1.35;;;;;;;16.48;71.12;100677.25;4923485;29;20036;-83
2023/07/07 09:03:12;;;;;;;8.23;2.05;;;;;;;16.51;71.19;100664.19;4931005;29;20048;-84
2023/07/07 09:05:52;;;;;;;9.05;1.60;;;;;;;16.48;70.92;100677.25;4921630;29;20051;-84
2023/07/07 09:08:30;;;;;;;4.47;1.30;;;;;;;16.50;70.76;100674.66;4923912;28;20536;-83
2023/07/07 09:11:13;;;;;;;6.43;1.63;;;;;;;16.51;71.29;100676.38;4923102;29;20052;-83
2023/07/07 09:13:46;;;;;;;6.63;1.63;;;;;;;16.42;71.60;100679.81;4922358;29;20090;-83
2023/07/07 09:16:23;;;;;;;7.15;1.75;;;;;;;16.36;71.83;100682.44;4920715;29;20634;-83
2023/07/07 09:18:56;;;;;;;7.18;1.23;;;;;;;16.30;72.13;100687.63;4919632;29;20135;-82
2023/07/07 09:21:34;;;;;;;4.30;1.45;;;;;;;16.25;72.39;100684.97;4919958;29;20122;-85
2023/07/07 09:24:13;;;;;;;6.43;1.40;;;;;;;16.24;73.04;100687.56;4923822;29;20049;-82
2023/07/07 09:26:44;;;;;;;5.35;1.15;;;;;;;16.19;72.68;100682.31;4923300;29;20051;-84
2023/07/07 09:29:21;;;;;;;5.35;1.52;;;;;;;16.19;72.88;100681.47;4928379;29;20044;-84
2023/07/07 09:31:50;;;;;;;3.70;1.17;;;;;;;16.24;72.79;100692.78;4931901;29;20044;-82
2023/07/07 09:34:23;;;;;;;4.22;1.27;;;;;;;16.24;72.93;100690.19;4925614;29;20052;-82
2023/07/07 09:37:01;;;;;;;5.78;1.60;;;;;;;16.23;72.33;100696.28;4924613;29;20052;-84
2023/07/07 09:39:52;;;;;;;6.45;1.15;;;;;;;16.22;73.05;100694.56;4926281;29;20043;-82
2023/07/07 09:42:38;;;;;;;3.88;1.00;;;;;;;16.16;73.71;100695.38;4923039;29;20915;-83
2023/07/07 09:45:27;;;;;;;6.65;1.80;;;;;;;16.15;72.93;100696.25;4922233;29;20047;-84
2023/07/07 09:48:05;;;;;;;8.40;1.10;;;;;;;16.16;72.92;100695.38;4929975;29;20055;-85
2023/07/07 09:50:41;;;;;;;6.60;1.60;;;;;;;16.17;72.22;100696.25;4934026;29;20107;-84
2023/07/07 09:53:21;;;;;;;6.18;1.38;;;;;;;16.15;72.81;100700.56;4929470;29;20102;-85
2023/07/07 09:55:50;;;;;;;3.88;1.40;;;;;;;16.13;72.27;100698.84;4937107;29;20036;-84
2023/07/07 09:58:24;;;;;;;6.90;1.38;;;;;;;16.15;71.97;100700.56;4934229;29;20195;-84
2023/07/07 10:00:58;;;;;;;6.55;1.75;;;;;;;16.12;72.21;100694.47;4936243;29;20059;-85
2023/07/07 10:03:31;;;;;;;6.85;1.92;;;;;;;16.10;72.44;100693.63;4931859;29;20458;-85
2023/07/07 10:06:02;;;;;;;3.05;1.42;;;;;;;16.03;73.24;100699.63;4920746;29;20538;-83
2023/07/07 10:08:33;;;;;;;8.82;1.52;;;;;;;15.99;73.50;100697.91;4924487;28;20062;-83
2023/07/07 10:11:17;;;;;;;6.05;1.20;;;;;;;15.98;73.07;100695.25;4925012;29;20052;-82
2023/07/07 10:13:45;;;;;;;5.35;1.30;;;;;;;15.96;73.21;100695.25;4918184;29;20052;-84
2023/07/07 10:16:29;;;;;;;6.03;1.45;;;;;;;15.94;73.49;100699.56;4929262;29;20040;-85
2023/07/07 10:18:59;;;;;;;8.25;1.92;;;;;;;15.94;73.55;100702.19;4929600;29;20048;-84
2023/07/07 10:21:30;;;;;;;6.28;1.45;;;;;;;15.93;72.89;100703.06;4927394;29;20051;-85
2023/07/07 10:24:01;;;;;;;1.90;1.00;;;;;;;15.91;73.45;100703.03;4930860;29;20055;-85
2023/07/07 10:26:30;;;;;;;2.88;1.10;;;;;;;15.90;72.58;100703.06;4931450;29;20438;-85
2023/07/07 10:29:02;;;;;;;4.50;1.38;;;;;;;15.87;72.71;100697.78;4925593;29;20105;-85
2023/07/07 10:31:32;;;;;;;5.35;1.27;;;;;;;15.84;73.36;100697.78;4921186;29;20100;-83
2023/07/07 10:34:04;;;;;;;5.10;1.40;;;;;;;15.79;74.33;100694.28;4922812;29;20588;-82
2023/07/07 10:36:35;;;;;;;6.90;1.35;;;;;;;15.72;75.07;100692.50;4923217;29;20055;-84
2023/07/07 10:39:04;;;;;;;4.13;1.25;;;;;;;15.65;76.20;100694.13;4921773;29;20044;-83
2023/07/07 10:41:33;;;;;;;4.18;1.15;;;;;;;15.55;76.16;100698.38;4919398;29;20379;-84
2023/07/07 10:44:01;;;;;;;8.13;1.95;;;;;;;15.53;76.46;100699.25;4919632;29;20080;-84
2023/07/07 10:46:32;;;;;;;3.80;1.70;;;;;;;15.52;77.14;100695.75;4918032;29;20083;-84
2023/07/07 10:49:00;;;;;;;2.95;1.13;;;;;;;15.54;75.92;100699.25;4936144;29;20032;-84
2023/07/07 10:51:37;;;;;;;5.97;1.00;;;;;;;15.56;76.85;100707.97;4924459;29;20079;-83
2023/07/07 10:54:12;;;;;;;6.15;1.27;;;;;;;15.59;76.19;100707.13;4918354;29;20087;-84
2023/07/07 10:56:45;;;;;;;5.00;1.80;;;;;;;15.58;76.32;100705.38;4915675;29;20044;-84
2023/07/07 10:59:41;;;;;;;2.80;0.93;;;;;;;15.57;76.41;100703.63;4928167;29;20101;-84
2023/07/07 11:02:35;;;;;;;6.95;1.13;;;;;;;15.55;76.26;100711.44;4917217;29;20084;-84
2023/07/07 11:05:35;;;;;;;3.90;1.17;;;;;;;15.57;75.57;100701.03;4916116;29;20080;-84
2023/07/07 11:08:20;;;;;;;6.60;1.40;;;;;;;15.58;75.72;100705.38;4917858;28;20143;-84
2023/07/07 11:11:19;;;;;;;2.45;1.23;;;;;;;15.58;75.85;100708.00;4909737;29;20647;-84
2023/07/07 11:14:19;;;;;;;4.85;1.02;;;;;;;15.54;75.45;100709.69;4912914;29;20409;-83
2023/07/07 11:17:02;;;;;;;4.40;1.45;;;;;;;15.53;75.40;100710.56;4913758;29;20417;-84
2023/07/07 11:20:00;;;;;;;5.22;1.15;;;;;;;15.50;76.03;100715.72;4914211;29;20143;-84
2023/07/07 11:22:57;;;;;;;1.75;1.27;;;;;;;15.48;76.63;100712.25;4920459;29;20106;-83
2023/07/07 11:25:40;;;;;;;6.95;1.27;;;;;;;15.46;77.02;100716.56;4917968;29;20089;-84
2023/07/07 11:28:49;;;;;;;1.90;0.95;;;;;;;15.44;77.03;100715.72;4771206;27;9544455;-85
2023/07/07 11:31:38;;;;;;;5.80;1.77;;;;;;;15.42;76.33;100720.03;5078449;28;20052;-85
2023/07/07 11:34:19;;;;;;;5.82;1.65;;;;;;;15.37;76.47;100727.81;5079190;28;20052;-84
2023/07/07 11:37:01;;;;;;;5.35;1.27;;;;;;;15.37;77.24;100721.69;5082057;28;20052;-85
2023/07/07 11:39:53;;;;;;;3.88;1.15;;;;;;;15.35;76.91;100713.00;5081674;28;20129;-84
2023/07/07 11:42:47;;;;;;;3.25;1.17;;;;;;;15.31;77.05;100712.09;5080905;28;20049;-84
2023/07/07 11:45:33;;;;;;;5.93;1.42;;;;;;;15.30;77.28;100718.16;5082131;28;20123;-82
2023/07/07 11:48:24;;;;;;;2.78;1.40;;;;;;;15.26;77.53;100722.47;5076347;28;20481;-84
2023/07/07 11:51:05;;;;;;;7.45;1.40;;;;;;;15.21;78.54;100720.66;5077557;28;20041;-83